Qalandiyah, West Bank
Current Conditions -  °F | °C
As of 9:50 PM on Thursday 30 Oct 2014 (Local Time) from LLBG Reporting Station
Thunderstorm Thunderstorm  
Wind Chill: 68°   Ceiling: Unl
Heat Index: 68°   Visibility: 6mi
Dew Point: 59°   Wind: 6mph
Humidity: 73%   Direction: 180°S
Pressure: 29.94"   Gusts: NA
Location:  31.8°N, 35.25°E
Report Text: LLBG 301850Z 18005KT 9999 VCTS FEW025CB 20/15 Q1014 TEMPO 6000TSRA SCT030CB
Loading
Personal Weather Stations






























Interactive Weather Map
Tropical Storm Tracking
New forecast layout! Learn more

10-Day Weather Forecast

Advertisements
Track Severe Weather on mobile